メインページ
METAR-TAF:

METAR-TAF

空港 :

ムンダ空港

ムンダ, ニュージョージア島, ソロモン諸島

緯度: 8-19-41S, 経度: 157-15-47E, 海抜: 3m

現時点の気象観測

当レポートは11時間41分前の06:00(UTC)に作成
西の風 12kt
気温 26°C
湿度 89%
気圧 1006 hPa
高度1600ftの雲は散在している
高度1700ftの雲はほとんどない, 積乱雲.
高度10000ftの曇り

METAR: AGGM 170600Z 27012KT 1000M +TSSH SCT016 FEW017CB OVC100 26/24 Q1006

時間: 04:41 (17:41 UTC)

予報

当レポートは41分前の17:00(UTC)に作成
予報は17日の 18時(UTC)から 18日の 18時(UTC)まで有効
南/南西の風 8kt
視程: 1007m
高度1700ftの雲は散在している
高度1600ftの千切れ雲あり
高度1700ftの雲はほとんどない, 積乱雲.

TAF: AGGM 171700Z 1718/1818 20008KT 9999 SCT017 INTER 1718/1803 5000 TSSH BKN016 FEW017CB Q 1007 1009 1009 1007

4,000以上の空港の気象観測と天気予報(METAR報とTAF報)

利用可能な観測所は地図上に黄色い丸と赤い丸で示す。

丸の上にカーソルを重ねると観測所名を参照できる。

次にクリックすると気象観測と天気予報を参照できる。

マップの切り替え:黒色「×」印の緑ボタンをクリックして拡大、「-」印の緑ボタンをクリックして縮小、緑色の三角印をクリックして隣りの地図に切り替え


METAR-TAF: